Marshall, NC (28753)

12:11 AM EST on January 29, 2015 (GMT -0500)
APRSWXNET Marshall NC US | Change Station
CLOSE
Current Station
Personal Weather Station
Location: Marshall, NC
Elevation: 2199 ft
Nearby Weather Stations

Elev 2199 ft 35.91 °N, 82.69 °W | Updated 39 minutes ago

Clear
Clear
26 °F
Feels Like 26 °F
N
0
Wind Variable Wind from SSW
Gusts 0.0 mph

Today
High -- | Low -- °F
--% Chance of Precip.
Yesterday
High -- | Low -- °F
Precip. -- in
7:33 AM 5:54 PM
Waxing Gibbous, 71% visible
Pressure 30.29 in
Visibility 10.0 miles
Clouds Clear
Windchill 26 °F
Dew Point 22 °F
Humidity 83%
Rainfall -999.00 in
Snow Depth Not available.
UV 0 out of 12
Pollen .50 out of 12
Air Quality Not available.
Flu Activity Not available.
METAR KAVL 290454Z AUTO 00000KT 10SM CLR M03/M07 A3026 RMK AO2 SLP257 T10281072 400781056

More Conditions Fewer Conditions

Pressure 30.29 in
Visibility 10.0 miles
Clouds Clear
Windchill 26 °F
Dew Point 22 °F
Humidity 83%
Rainfall -999.00 in
Snow Depth Not available.
UV 0 out of 12
Pollen .50 out of 12
Air Quality Not available.
Flu Activity Not available.
METAR KAVL 290454Z AUTO 00000KT 10SM CLR M03/M07 A3026 RMK AO2 SLP257 T10281072 400781056

More Conditions Fewer Conditions

10-Day Weather Forecast

Almanac

Astronomy

Jan. 29, 2015 Rise Set
Actual Time
Civil Twilight
Nautical Twilight
Astronomical Twilight
Moon
Length of Visible Light
Length of Day
Tomorrow will be .
, % of the Moon is Illuminated

Today's Extremes

State Highs State Lows

Community

WunderPhotos

Upload Photos

1,791,357 photos uploaded!

WunderBlogs® & News

Nearby

Air Quality

  Air Quality AQ Index Pollutant
Not available.

Snow Depth

Station Depth Elevation

Earthquake Activity

City Distance Mag. Time & Date
Minimum magnitude displayed is 2.5.

Coastal Water Temperatures

Place Temperature

Nearby Weather Stations